createdAt,value
2022-08-18T00:02:25.008Z,3.63
2022-08-18T00:04:57.360Z,4.60
2022-08-18T00:07:31.701Z,4.07
2022-08-18T00:10:00.253Z,4.32
2022-08-18T00:12:47.400Z,4.18
2022-08-18T00:15:17.933Z,4.13
2022-08-18T00:17:45.555Z,4.63
2022-08-18T00:20:21.775Z,4.53
2022-08-18T00:22:49.958Z,4.07
2022-08-18T00:25:19.189Z,3.55
2022-08-18T00:27:46.177Z,4.75
2022-08-18T00:30:18.762Z,4.55
2022-08-18T00:32:51.512Z,4.32
2022-08-18T00:35:37.909Z,4.53
2022-08-18T00:38:08.052Z,4.60
2022-08-18T00:40:54.524Z,4.20
2022-08-18T00:43:48.054Z,4.32
2022-08-18T00:46:36.958Z,4.53
2022-08-18T00:49:05.833Z,4.88
2022-08-18T00:51:46.736Z,4.22
2022-08-18T00:54:23.269Z,4.93
2022-08-18T00:56:58.332Z,5.18
2022-08-18T00:59:50.817Z,5.15
2022-08-18T01:02:24.773Z,4.80
2022-08-18T01:04:56.682Z,5.07
2022-08-18T01:07:45.899Z,4.03
2022-08-18T01:10:16.594Z,4.80
2022-08-18T01:12:46.813Z,5.10
2022-08-18T01:15:29.164Z,4.70
2022-08-18T01:18:34.827Z,4.65
2022-08-18T01:21:34.403Z,4.47
2022-08-18T01:24:05.199Z,4.80
2022-08-18T01:26:37.799Z,4.60
2022-08-18T01:29:18.551Z,4.10
2022-08-18T01:31:55.455Z,4.40
2022-08-18T01:34:27.395Z,4.50
2022-08-18T01:36:55.458Z,4.40
2022-08-18T01:41:25.075Z,5.18
2022-08-18T01:42:11.563Z,4.28
2022-08-18T01:44:41.497Z,4.80
2022-08-18T01:47:11.509Z,4.70
2022-08-18T01:49:43.099Z,4.78
2022-08-18T01:52:17.826Z,4.50
2022-08-18T01:54:44.671Z,4.75
2022-08-18T01:57:14.569Z,4.82
2022-08-18T01:59:43.001Z,4.43
2022-08-18T02:02:18.558Z,4.53
2022-08-18T02:04:47.415Z,4.47
2022-08-18T02:07:14.898Z,4.20
2022-08-18T02:09:43.153Z,4.90
2022-08-18T02:12:11.306Z,4.38
2022-08-18T02:14:39.094Z,4.63
2022-08-18T02:17:09.350Z,4.38
2022-08-18T02:19:40.782Z,4.45
2022-08-18T02:22:09.740Z,4.65
2022-08-18T02:24:37.669Z,4.13
2022-08-18T02:27:05.429Z,5.25
2022-08-18T02:33:38.911Z,4.80
2022-08-18T02:36:14.708Z,4.60
2022-08-18T02:38:42.800Z,4.72
2022-08-18T02:41:12.725Z,5.20
2022-08-18T02:43:41.997Z,5.28
2022-08-18T02:46:09.898Z,4.55
2022-08-18T02:48:36.694Z,5.28
2022-08-18T02:51:16.033Z,6.00
2022-08-18T02:53:46.950Z,6.20
2022-08-18T02:56:40.100Z,5.55
2022-08-18T02:59:14.957Z,6.80
2022-08-18T03:01:46.061Z,6.30
2022-08-18T03:04:17.500Z,6.28
2022-08-18T03:06:45.332Z,6.72
2022-08-18T03:09:16.142Z,6.85
2022-08-18T03:11:43.817Z,7.72
2022-08-18T03:14:11.810Z,7.90
2022-08-18T03:16:45.662Z,8.20
2022-08-18T03:19:31.823Z,7.25
2022-08-18T03:22:02.814Z,7.70
2022-08-18T03:24:32.781Z,8.73
2022-08-18T03:27:01.502Z,8.25
2022-08-18T03:29:32.360Z,9.15
2022-08-18T03:32:01.490Z,9.93
2022-08-18T03:34:28.363Z,9.77
2022-08-18T03:36:55.305Z,10.98
2022-08-18T03:39:25.215Z,10.02
2022-08-18T03:42:01.016Z,11.63
2022-08-18T03:44:38.445Z,11.40
2022-08-18T03:47:11.839Z,12.25
2022-08-18T03:49:39.291Z,10.50
2022-08-18T03:52:09.655Z,11.95
2022-08-18T03:54:38.804Z,10.45
2022-08-18T03:57:09.287Z,11.25
2022-08-18T03:59:36.101Z,10.27
2022-08-18T04:02:05.066Z,10.43
2022-08-18T04:04:32.217Z,10.02
2022-08-18T04:07:06.043Z,11.05
2022-08-18T04:09:35.095Z,10.82
2022-08-18T04:12:15.454Z,10.93
2022-08-18T04:14:48.636Z,10.38
2022-08-18T04:17:23.372Z,11.25
2022-08-18T04:19:52.246Z,9.65
2022-08-18T04:22:19.121Z,12.05
2022-08-18T04:24:46.883Z,11.30
2022-08-18T04:27:13.794Z,10.15
2022-08-18T04:29:40.580Z,11.05
2022-08-18T04:32:07.855Z,10.60
2022-08-18T04:34:35.425Z,10.15
2022-08-18T04:37:02.912Z,10.32
2022-08-18T04:39:30.193Z,9.60
2022-08-18T04:41:57.006Z,10.57
2022-08-18T04:44:23.796Z,11.18
2022-08-18T04:46:53.190Z,9.95
2022-08-18T04:49:25.709Z,10.90
2022-08-18T04:52:36.098Z,11.40
2022-08-18T04:55:01.015Z,12.32
2022-08-18T04:57:29.011Z,12.70
2022-08-18T05:00:00.700Z,11.93
2022-08-18T05:02:28.080Z,12.40
2022-08-18T05:04:55.011Z,12.20
2022-08-18T05:07:25.534Z,11.82
2022-08-18T05:09:54.939Z,10.85
2022-08-18T05:12:25.827Z,15.23
2022-08-18T05:14:54.331Z,14.88
2022-08-18T05:17:21.136Z,13.95
2022-08-18T05:19:49.751Z,12.63
2022-08-18T05:22:19.582Z,13.27
2022-08-18T05:24:54.589Z,16.05
2022-08-18T05:27:21.485Z,16.75
2022-08-18T05:29:51.578Z,14.65
2022-08-18T05:32:38.274Z,14.93
2022-08-18T05:35:14.116Z,14.98
2022-08-18T05:37:59.737Z,16.23
2022-08-18T05:40:26.777Z,16.40
2022-08-18T05:42:57.342Z,14.40
2022-08-18T05:45:24.766Z,14.45
2022-08-18T05:47:51.763Z,14.30
2022-08-18T05:50:20.947Z,15.43
2022-08-18T05:52:59.157Z,13.65
2022-08-18T05:55:56.246Z,13.57
2022-08-18T05:58:33.334Z,12.60
2022-08-18T06:01:14.174Z,15.52
2022-08-18T06:03:48.981Z,15.77
2022-08-18T06:06:22.912Z,17.27
2022-08-18T06:09:03.683Z,17.20
2022-08-18T06:11:30.473Z,16.42
2022-08-18T06:13:59.488Z,17.60
2022-08-18T06:17:04.938Z,18.02
2022-08-18T06:20:04.706Z,18.23
2022-08-18T06:23:18.189Z,19.75
2022-08-18T06:26:19.766Z,20.15
2022-08-18T06:29:16.389Z,21.33
2022-08-18T06:32:05.349Z,20.67
2022-08-18T06:34:43.818Z,20.23
2022-08-18T06:37:18.719Z,21.42
2022-08-18T06:39:52.320Z,21.02
2022-08-18T06:42:30.371Z,24.45
2022-08-18T06:45:12.681Z,22.88
2022-08-18T06:48:05.993Z,21.67
2022-08-18T06:50:54.400Z,23.52
2022-08-18T06:53:28.048Z,24.33
2022-08-18T06:55:55.933Z,21.92
2022-08-18T06:58:30.456Z,23.42
2022-08-18T07:01:01.914Z,24.02
2022-08-18T07:03:43.834Z,22.75
2022-08-18T07:06:23.311Z,22.25
2022-08-18T07:08:55.708Z,21.33
2022-08-18T07:11:34.078Z,24.40
2022-08-18T07:14:22.845Z,22.67
2022-08-18T07:16:59.813Z,21.60
2022-08-18T07:19:30.933Z,23.38
2022-08-18T07:22:07.271Z,22.23
2022-08-18T07:24:44.599Z,24.10
2022-08-18T07:27:19.175Z,24.27
2022-08-18T07:30:25.146Z,23.48
2022-08-18T07:33:21.154Z,21.40
2022-08-18T07:35:59.652Z,22.08
2022-08-18T07:38:45.285Z,21.67
2022-08-18T07:41:20.405Z,21.35
2022-08-18T07:43:52.633Z,21.15
2022-08-18T07:46:45.776Z,21.27
2022-08-18T07:49:22.305Z,20.40
2022-08-18T07:51:57.754Z,18.92
2022-08-18T07:54:54.812Z,20.95
2022-08-18T07:57:46.403Z,18.65
2022-08-18T08:00:57.455Z,19.15
2022-08-18T08:04:25.711Z,18.10
2022-08-18T08:07:24.929Z,18.83
2022-08-18T08:10:22.596Z,18.98
2022-08-18T08:13:31.280Z,18.25
2022-08-18T08:16:22.663Z,18.67
2022-08-18T08:19:59.003Z,20.57
2022-08-18T08:22:41.275Z,20.60
2022-08-18T08:25:46.420Z,19.42
2022-08-18T08:28:51.377Z,19.92
2022-08-18T08:31:59.639Z,17.23
2022-08-18T08:34:53.470Z,19.43
2022-08-18T08:37:33.288Z,17.52
2022-08-18T08:40:13.644Z,19.42
2022-08-18T08:42:55.087Z,18.75
2022-08-18T08:45:32.681Z,18.95
2022-08-18T08:48:14.627Z,20.88
2022-08-18T08:50:57.092Z,15.82
2022-08-18T08:53:38.337Z,20.33
2022-08-18T08:56:15.687Z,19.00
2022-08-18T08:59:01.260Z,18.58
2022-08-18T09:01:32.451Z,19.23
2022-08-18T09:04:28.036Z,19.88
2022-08-18T09:07:23.510Z,20.70
2022-08-18T09:10:30.285Z,18.50
2022-08-18T09:13:34.842Z,21.45
2022-08-18T09:16:38.579Z,18.92
2022-08-18T09:19:31.702Z,17.38
2022-08-18T09:22:36.758Z,18.40
2022-08-18T09:25:39.226Z,18.92
2022-08-18T09:28:39.414Z,16.95
2022-08-18T09:31:07.277Z,17.20
2022-08-18T09:33:44.414Z,17.88
2022-08-18T09:36:45.653Z,19.02
2022-08-18T09:39:58.939Z,17.65
2022-08-18T09:42:51.638Z,18.83
2022-08-18T09:45:33.333Z,15.73
2022-08-18T09:48:12.841Z,19.35
2022-08-18T09:50:57.618Z,19.00
2022-08-18T09:53:45.727Z,16.98
2022-08-18T09:56:15.707Z,17.77
2022-08-18T09:58:55.929Z,16.85
2022-08-18T10:01:34.388Z,14.95
2022-08-18T10:04:15.380Z,14.68
2022-08-18T10:06:48.221Z,16.52
2022-08-18T10:09:36.862Z,16.60
2022-08-18T10:12:27.338Z,14.57
2022-08-18T10:15:32.882Z,12.52
2022-08-18T10:21:31.169Z,13.50
2022-08-18T10:24:32.278Z,12.55
2022-08-18T10:26:54.969Z,12.70
2022-08-18T10:29:25.893Z,13.65
2022-08-18T10:31:56.011Z,12.20
2022-08-18T10:34:51.897Z,11.18
2022-08-18T10:37:38.828Z,11.07
2022-08-18T10:40:14.226Z,12.32
2022-08-18T10:42:53.143Z,10.90
2022-08-18T10:45:30.082Z,9.88
2022-08-18T10:48:31.840Z,11.05
2022-08-18T10:54:18.793Z,10.35
2022-08-18T10:57:08.564Z,10.15
2022-08-18T10:59:57.692Z,9.43
2022-08-18T11:02:43.996Z,8.77
2022-08-18T11:05:17.108Z,9.70
2022-08-18T11:07:52.102Z,10.68
2022-08-18T11:10:57.739Z,10.43
2022-08-18T11:13:58.495Z,9.30
2022-08-18T11:17:07.038Z,9.43
2022-08-18T11:19:43.268Z,10.05
2022-08-18T11:22:31.482Z,9.40
2022-08-18T11:25:01.081Z,9.18
2022-08-18T11:27:37.476Z,8.95
2022-08-18T11:30:09.872Z,9.10
2022-08-18T11:32:42.659Z,9.15
2022-08-18T11:35:27.644Z,8.30
2022-08-18T11:38:04.026Z,7.22
2022-08-18T11:41:10.819Z,6.88
2022-08-18T11:43:30.016Z,7.93
2022-08-18T11:46:37.083Z,7.72
2022-08-18T11:49:26.317Z,6.70
2022-08-18T11:52:03.223Z,6.55
2022-08-18T11:57:54.365Z,5.22
2022-08-18T12:00:46.477Z,4.38
2022-08-18T12:03:31.686Z,5.63
2022-08-18T12:06:26.640Z,5.57
2022-08-18T12:09:06.476Z,5.97
2022-08-18T12:11:41.285Z,5.70
2022-08-18T12:14:31.271Z,6.47
2022-08-18T12:17:01.689Z,5.47
2022-08-18T12:19:31.086Z,5.82
2022-08-18T12:22:01.998Z,5.30
2022-08-18T12:24:39.201Z,4.38
2022-08-18T12:27:20.402Z,4.63
2022-08-18T12:29:48.147Z,3.95
2022-08-18T12:32:18.208Z,4.20
2022-08-18T12:37:59.571Z,3.85
2022-08-18T12:40:27.569Z,3.67
2022-08-18T12:42:56.056Z,4.57
2022-08-18T12:48:11.841Z,4.60
2022-08-18T12:50:50.019Z,5.15
2022-08-18T12:53:30.088Z,4.82
2022-08-18T12:56:24.865Z,5.15
2022-08-18T12:58:52.920Z,4.60
2022-08-18T13:01:21.582Z,4.35
2022-08-18T13:04:11.416Z,4.72
2022-08-18T13:07:00.140Z,4.78
2022-08-18T13:09:35.015Z,4.55
2022-08-18T13:12:14.793Z,4.05
2022-08-18T13:14:43.495Z,4.63
2022-08-18T13:17:30.298Z,4.28
2022-08-18T13:19:59.420Z,4.10
2022-08-18T13:22:32.019Z,4.60
2022-08-18T13:25:03.665Z,4.03
2022-08-18T13:27:33.639Z,4.28
2022-08-18T13:30:30.387Z,5.13
2022-08-18T13:33:02.690Z,3.60
2022-08-18T13:35:37.962Z,4.45
2022-08-18T13:38:22.094Z,4.30
2022-08-18T13:40:57.534Z,4.20
2022-08-18T13:43:39.393Z,4.22
2022-08-18T13:46:09.181Z,4.15
2022-08-18T13:48:37.731Z,5.13
2022-08-18T13:51:08.266Z,4.18
2022-08-18T13:53:50.460Z,5.10
2022-08-18T13:56:31.446Z,4.63
2022-08-18T13:58:58.822Z,3.97
2022-08-18T14:01:45.045Z,4.93
2022-08-18T14:04:15.017Z,4.68
2022-08-18T14:06:56.289Z,4.38
2022-08-18T14:09:27.722Z,4.40
2022-08-18T14:12:15.901Z,4.88
2022-08-18T14:14:53.248Z,4.53
2022-08-18T14:17:22.723Z,3.78
2022-08-18T14:20:15.281Z,4.00
2022-08-18T14:23:21.506Z,4.22
2022-08-18T14:26:08.544Z,3.80
2022-08-18T14:28:35.488Z,3.72
2022-08-18T14:31:07.036Z,4.03
2022-08-18T14:33:50.496Z,3.70
2022-08-18T14:36:20.155Z,3.97
2022-08-18T14:38:58.640Z,4.32
2022-08-18T14:41:27.198Z,3.70
2022-08-18T14:44:12.198Z,3.95
2022-08-18T14:46:40.817Z,3.60
2022-08-18T14:49:08.030Z,3.90
2022-08-18T14:51:35.344Z,3.67
2022-08-18T14:54:02.303Z,3.72
2022-08-18T14:56:29.433Z,3.88
2022-08-18T14:58:56.907Z,3.70
2022-08-18T15:01:24.708Z,3.70
2022-08-18T15:03:54.376Z,4.03
2022-08-18T15:06:26.993Z,4.15
2022-08-18T15:08:57.108Z,4.90
2022-08-18T15:11:24.973Z,4.32
2022-08-18T15:13:55.151Z,3.97
2022-08-18T15:16:27.162Z,4.13
2022-08-18T15:18:59.281Z,4.05
2022-08-18T15:21:47.825Z,4.10
2022-08-18T15:24:39.696Z,4.03
2022-08-18T15:27:10.428Z,4.05
2022-08-18T15:29:41.374Z,4.03
2022-08-18T15:32:10.233Z,4.03
2022-08-18T15:34:47.330Z,3.90
2022-08-18T15:37:20.403Z,3.72
2022-08-18T15:40:02.562Z,3.50
2022-08-18T15:42:29.839Z,3.45
2022-08-18T15:44:56.834Z,3.80
2022-08-18T15:47:25.130Z,3.60
2022-08-18T15:49:52.456Z,3.35
2022-08-18T15:52:24.473Z,3.38
2022-08-18T15:54:57.008Z,3.90
2022-08-18T15:57:39.656Z,3.78
2022-08-18T16:00:08.453Z,3.70
2022-08-18T16:02:41.058Z,3.90
2022-08-18T16:05:14.150Z,4.15
2022-08-18T16:07:45.246Z,3.92
2022-08-18T16:10:14.604Z,3.80
2022-08-18T16:12:45.766Z,4.18
2022-08-18T16:15:19.134Z,3.60
2022-08-18T16:17:47.725Z,3.40
2022-08-18T16:20:14.804Z,3.50
2022-08-18T16:22:41.688Z,3.20
2022-08-18T16:25:09.332Z,3.22
2022-08-18T16:27:41.040Z,3.92
2022-08-18T16:30:18.536Z,3.60
2022-08-18T16:32:47.131Z,3.67
2022-08-18T16:35:15.388Z,3.83
2022-08-18T16:37:43.103Z,3.90
2022-08-18T16:40:10.925Z,3.60
2022-08-18T16:42:37.857Z,3.88
2022-08-18T16:45:06.313Z,3.15
2022-08-18T16:47:38.801Z,3.17
2022-08-18T16:50:12.461Z,2.97
2022-08-18T16:52:40.084Z,2.80
2022-08-18T16:55:09.738Z,3.40
2022-08-18T16:57:58.896Z,3.35
2022-08-18T17:00:45.127Z,3.67
2022-08-18T17:03:30.844Z,3.47
2022-08-18T17:06:03.300Z,4.00
2022-08-18T17:08:34.127Z,3.55
2022-08-18T17:11:09.290Z,3.50
2022-08-18T17:13:37.783Z,3.72
2022-08-18T17:16:05.130Z,3.35
2022-08-18T17:18:32.218Z,3.30
2022-08-18T17:21:06.953Z,3.30
2022-08-18T17:23:34.608Z,3.65
2022-08-18T17:26:16.437Z,3.97
2022-08-18T17:28:52.558Z,3.58
2022-08-18T17:31:24.570Z,3.50
2022-08-18T17:33:57.701Z,3.95
2022-08-18T17:36:53.062Z,3.58
2022-08-18T17:39:26.314Z,3.28
2022-08-18T17:42:11.666Z,3.75
2022-08-18T17:44:52.149Z,3.72
2022-08-18T17:47:27.030Z,3.78
2022-08-18T17:53:05.615Z,3.42
2022-08-18T17:55:49.705Z,3.90
2022-08-18T17:58:42.546Z,3.70
2022-08-18T18:01:12.570Z,3.42
2022-08-18T18:03:40.859Z,3.72
2022-08-18T18:06:18.159Z,3.42
2022-08-18T18:08:54.526Z,3.78
2022-08-18T18:11:31.358Z,4.70
2022-08-18T18:14:01.206Z,4.57
2022-08-18T18:16:35.402Z,4.90
2022-08-18T18:21:55.272Z,4.07
2022-08-18T18:24:33.441Z,4.95
2022-08-18T18:27:00.718Z,4.78
2022-08-18T18:29:35.927Z,4.18
2022-08-18T18:32:48.304Z,4.32
2022-08-18T18:35:53.118Z,3.97
2022-08-18T18:38:31.943Z,4.00
2022-08-18T18:41:06.696Z,4.57
2022-08-18T18:43:41.090Z,4.20
2022-08-18T18:49:20.706Z,4.88
2022-08-18T18:52:07.500Z,4.90
2022-08-18T18:55:06.047Z,4.78
2022-08-18T18:57:51.795Z,4.88
2022-08-18T19:00:40.533Z,4.75
2022-08-18T19:03:14.693Z,4.50
2022-08-18T19:06:15.281Z,4.10
2022-08-18T19:09:04.845Z,4.53
2022-08-18T19:12:07.108Z,5.00
2022-08-18T19:14:40.975Z,4.32
2022-08-18T19:17:13.478Z,4.38
2022-08-18T19:19:55.361Z,4.55
2022-08-18T19:22:54.691Z,4.60
2022-08-18T19:25:25.721Z,4.72
2022-08-18T19:28:07.930Z,4.13
2022-08-18T19:30:40.494Z,3.53
2022-08-18T19:33:11.427Z,4.30
2022-08-18T19:35:59.088Z,3.92
2022-08-18T19:38:42.817Z,4.03
2022-08-18T19:41:39.170Z,4.57
2022-08-18T19:44:30.200Z,4.45
2022-08-18T19:47:30.573Z,4.13
2022-08-18T19:50:21.460Z,3.85
2022-08-18T19:53:09.473Z,4.25
2022-08-18T19:55:51.138Z,4.07
2022-08-18T19:58:37.342Z,3.83
2022-08-18T20:01:47.121Z,3.75
2022-08-18T20:05:03.513Z,3.53
2022-08-18T20:08:09.235Z,3.40
2022-08-18T20:11:41.183Z,4.10
2022-08-18T20:14:13.226Z,3.60
2022-08-18T20:16:44.670Z,3.67
2022-08-18T20:19:42.901Z,3.40
2022-08-18T20:22:36.347Z,3.58
2022-08-18T20:25:42.582Z,3.53
2022-08-18T20:28:21.653Z,3.45
2022-08-18T20:31:12.748Z,4.25
2022-08-18T20:34:14.076Z,3.25
2022-08-18T20:36:43.250Z,3.92
2022-08-18T20:39:54.398Z,3.95
2022-08-18T20:42:21.113Z,3.58
2022-08-18T20:44:51.648Z,3.90
2022-08-18T20:47:45.691Z,3.72
2022-08-18T20:50:51.319Z,3.87
2022-08-18T20:53:56.177Z,3.60
2022-08-18T20:56:43.437Z,3.85
2022-08-18T20:59:39.339Z,3.53
2022-08-18T21:02:38.416Z,3.30
2022-08-18T21:05:08.933Z,3.20
2022-08-18T21:08:17.088Z,3.77
2022-08-18T21:10:49.135Z,3.50
2022-08-18T21:13:41.433Z,3.88
2022-08-18T21:16:11.550Z,3.55
2022-08-18T21:18:48.622Z,3.25
2022-08-18T21:21:30.490Z,3.60
2022-08-18T21:24:02.713Z,3.30
2022-08-18T21:26:33.059Z,4.05
2022-08-18T21:29:12.377Z,3.72
2022-08-18T21:31:45.121Z,3.75
2022-08-18T21:34:33.363Z,3.42
2022-08-18T21:37:06.345Z,3.60
2022-08-18T21:39:34.882Z,3.33
2022-08-18T21:42:02.320Z,3.60
2022-08-18T21:44:41.640Z,3.35
2022-08-18T21:47:17.341Z,3.20
2022-08-18T21:50:00.132Z,3.30
2022-08-18T21:52:30.840Z,3.40
2022-08-18T21:55:05.645Z,3.80
2022-08-18T21:58:17.876Z,3.78
2022-08-18T22:01:24.852Z,3.80
2022-08-18T22:03:58.265Z,3.40
2022-08-18T22:06:33.746Z,2.92
2022-08-18T22:09:37.723Z,3.25
2022-08-18T22:12:51.812Z,3.83
2022-08-18T22:15:26.419Z,4.00
2022-08-18T22:18:00.535Z,3.30
2022-08-18T22:20:48.342Z,3.75
2022-08-18T22:23:33.387Z,3.85
2022-08-18T22:26:25.369Z,3.60
2022-08-18T22:29:10.078Z,2.95
2022-08-18T22:34:28.946Z,3.60
2022-08-18T22:37:09.809Z,3.13
2022-08-18T22:39:55.158Z,3.72
2022-08-18T22:42:30.308Z,3.55
2022-08-18T22:45:00.204Z,3.35
2022-08-18T22:47:30.104Z,3.20
2022-08-18T22:50:01.621Z,3.35
2022-08-18T22:52:37.423Z,3.47
2022-08-18T22:55:09.582Z,3.40
2022-08-18T22:57:38.887Z,2.92
2022-08-18T23:00:11.921Z,3.45
2022-08-18T23:02:39.028Z,3.40
2022-08-18T23:05:06.904Z,3.72
2022-08-18T23:07:34.105Z,3.40
2022-08-18T23:10:01.026Z,3.78
2022-08-18T23:12:27.851Z,4.47
2022-08-18T23:14:54.906Z,4.25
2022-08-18T23:17:21.936Z,4.20
2022-08-18T23:19:52.278Z,3.53
2022-08-18T23:22:19.401Z,4.18
2022-08-18T23:24:46.235Z,3.85
2022-08-18T23:27:13.122Z,4.13
2022-08-18T23:29:41.186Z,3.97
2022-08-18T23:32:08.164Z,4.32
2022-08-18T23:34:36.576Z,3.72
2022-08-18T23:37:05.027Z,3.53
2022-08-18T23:39:34.597Z,4.03
2022-08-18T23:42:03.748Z,4.60
2022-08-18T23:44:31.015Z,3.80
2022-08-18T23:46:59.812Z,4.07
2022-08-18T23:49:28.528Z,3.95
2022-08-18T23:51:56.089Z,3.38
2022-08-18T23:54:31.623Z,4.25
2022-08-18T23:56:58.771Z,3.42
2022-08-18T23:59:27.582Z,3.92
